Terminal Aerodrome Forecast
Issued by NWS Cleveland, OH

Home | Current Version | Previous Version | Text Only | Print | Product List | Glossary Off
Versions: 1 2 3 4 5 6 7 8 9 10 11 12 13 14 15 16 17 18 19 20 21 22 23

000
FTUS41 KCLE 160200 AAA
TAFERI
TAF AMD
KERI 160258Z 1603/1624 12008KT P6SM FEW015 OVC250
     FM160600 14010KT P6SM SCT040 OVC080
     FM161100 15010KT 5SM -RA BR OVC040
     FM161300 16010KT 4SM -RA BR BKN018 OVC040=

USA.gov is the U.S. government's official web portal to all federal, state and local government web resources and services.